Private Wetterstation Sandau
Wetterdaten: Samstag, 13.10.2012
Datum Zeit Temp. A. Feuchte A. Luftdruck Regen Wind Richtung Richtung Taupunkt Windchill
13.10.2012 00:01 10,1 C 92 % 1009,0 hPa 0,0 l/m 12,2 km/h (2 Bft) S-SW 202 8,9 C 10,1 C
13.10.2012 00:06 10,1 C 91 % 1008,8 hPa 0,0 l/m 8,3 km/h (2 Bft) W-SW 247 8,7 C 10,1 C
13.10.2012 00:11 10,1 C 91 % 1008,9 hPa 0,0 l/m 17,3 km/h (3 Bft) SW 225 8,7 C 10,1 C
13.10.2012 00:16 10,1 C 90 % 1009,0 hPa 0,0 l/m 9,7 km/h (2 Bft) S 180 8,5 C 10,1 C
13.10.2012 00:21 10,1 C 90 % 1009,0 hPa 0,0 l/m 8,6 km/h (2 Bft) W-NW 292 8,5 C 10,1 C
13.10.2012 00:26 10,2 C 89 % 1009,2 hPa 0,0 l/m 5,8 km/h (2 Bft) W 270 8,5 C 10,2 C
13.10.2012 00:31 10,2 C 89 % 1009,1 hPa 0,0 l/m 16,6 km/h (3 Bft) W-SW 247 8,5 C 10,2 C
13.10.2012 00:36 10,1 C 88 % 1009,2 hPa 0,0 l/m 22,7 km/h (4 Bft) W-SW 247 8,2 C 10,1 C
13.10.2012 00:41 10,1 C 88 % 1009,2 hPa 0,0 l/m 14,0 km/h (3 Bft) W 270 8,2 C 10,1 C
13.10.2012 00:46 10,1 C 88 % 1009,4 hPa 0,0 l/m 10,1 km/h (2 Bft) SW 225 8,2 C 10,1 C
13.10.2012 00:51 10,0 C 88 % 1009,4 hPa 0,0 l/m 10,4 km/h (2 Bft) W 270 8,1 C 8,6 C
13.10.2012 00:56 10,1 C 88 % 1009,4 hPa 0,0 l/m 7,6 km/h (2 Bft) W-SW 247 8,2 C 10,1 C
13.10.2012 01:01 10,1 C 88 % 1009,3 hPa 0,0 l/m 11,5 km/h (2 Bft) W-SW 247 8,2 C 10,1 C
13.10.2012 01:06 10,1 C 88 % 1009,3 hPa 0,0 l/m 14,8 km/h (3 Bft) W 270 8,2 C 10,1 C
13.10.2012 01:11 10,1 C 88 % 1009,5 hPa 0,0 l/m 14,4 km/h (3 Bft) W 270 8,2 C 10,1 C
13.10.2012 01:16 10,1 C 88 % 1009,6 hPa 0,0 l/m 24,1 km/h (4 Bft) W-SW 247 8,2 C 10,1 C
13.10.2012 01:21 10,1 C 88 % 1009,6 hPa 0,0 l/m 14,4 km/h (3 Bft) W 270 8,2 C 10,1 C
13.10.2012 01:26 10,1 C 88 % 1009,6 hPa 0,0 l/m 8,3 km/h (2 Bft) SW 225 8,2 C 10,1 C
13.10.2012 01:31 10,1 C 88 % 1009,6 hPa 0,0 l/m 16,2 km/h (3 Bft) S-SW 202 8,2 C 10,1 C
13.10.2012 01:36 10,0 C 88 % 1009,7 hPa 0,0 l/m 12,2 km/h (2 Bft) W-SW 247 8,1 C 8,3 C
13.10.2012 01:41 10,0 C 88 % 1009,9 hPa 0,0 l/m 18,4 km/h (3 Bft) W 270 8,1 C 7,5 C
13.10.2012 01:46 9,9 C 88 % 1009,9 hPa 0,0 l/m 25,2 km/h (4 Bft) W-SW 247 8,0 C 6,8 C
13.10.2012 01:51 9,9 C 88 % 1009,9 hPa 0,0 l/m 13,0 km/h (3 Bft) W-SW 247 8,0 C 8,1 C
13.10.2012 01:56 9,9 C 88 % 1009,9 hPa 0,0 l/m 15,5 km/h (3 Bft) W-SW 247 8,0 C 7,7 C
13.10.2012 02:01 9,9 C 88 % 1010,2 hPa 0,0 l/m 5,4 km/h (1 Bft) W 270 8,0 C 9,5 C
13.10.2012 02:06 9,8 C 87 % 1009,9 hPa 0,0 l/m 20,9 km/h (4 Bft) W-SW 247 7,7 C 7,0 C
13.10.2012 02:11 9,8 C 87 % 1010,1 hPa 0,0 l/m 14,4 km/h (3 Bft) W-SW 247 7,7 C 7,7 C
13.10.2012 02:16 9,8 C 87 % 1010,0 hPa 0,0 l/m 12,2 km/h (2 Bft) W-SW 247 7,7 C 8,0 C
13.10.2012 02:21 9,8 C 88 % 1010,1 hPa 0,0 l/m 22,0 km/h (4 Bft) W 270 7,9 C 6,9 C
13.10.2012 02:26 9,8 C 88 % 1010,2 hPa 0,0 l/m 11,9 km/h (2 Bft) W-SW 247 7,9 C 8,1 C
13.10.2012 02:31 9,8 C 88 % 1010,2 hPa 0,0 l/m 19,8 km/h (3 Bft) W-SW 247 7,9 C 7,1 C
13.10.2012 02:36 9,6 C 87 % 1010,3 hPa 0,0 l/m 16,9 km/h (3 Bft) W-SW 247 7,5 C 7,2 C
13.10.2012 02:41 9,6 C 87 % 1010,4 hPa 0,0 l/m 14,4 km/h (3 Bft) W-SW 247 7,5 C 7,5 C
13.10.2012 02:46 9,5 C 87 % 1010,3 hPa 0,0 l/m 9,4 km/h (2 Bft) W 270 7,4 C 8,1 C
13.10.2012 02:51 9,5 C 87 % 1010,3 hPa 0,0 l/m 15,8 km/h (3 Bft) W-NW 292 7,4 C 7,2 C
13.10.2012 02:56 9,4 C 87 % 1010,3 hPa 0,0 l/m 11,2 km/h (2 Bft) W 270 7,3 C 7,7 C
13.10.2012 03:01 9,4 C 87 % 1010,2 hPa 0,0 l/m 9,4 km/h (2 Bft) W-SW 247 7,3 C 8,0 C
13.10.2012 03:06 9,3 C 87 % 1010,3 hPa 0,0 l/m 13,0 km/h (3 Bft) W-SW 247 7,2 C 7,3 C
13.10.2012 03:11 9,3 C 87 % 1010,4 hPa 0,0 l/m 23,4 km/h (4 Bft) W 270 7,2 C 6,2 C
13.10.2012 03:16 9,3 C 87 % 1010,5 hPa 0,0 l/m 10,8 km/h (2 Bft) SW 225 7,2 C 7,7 C
13.10.2012 03:21 9,3 C 87 % 1010,6 hPa 0,0 l/m 21,2 km/h (4 Bft) W-SW 247 7,2 C 6,4 C
13.10.2012 03:26 9,3 C 87 % 1010,4 hPa 0,0 l/m 16,6 km/h (3 Bft) W-SW 247 7,2 C 6,9 C
13.10.2012 03:31 9,2 C 86 % 1010,6 hPa 0,0 l/m 10,8 km/h (2 Bft) W 270 7,0 C 7,5 C
13.10.2012 03:36 9,1 C 86 % 1010,4 hPa 0,0 l/m 8,6 km/h (2 Bft) SW 225 6,9 C 7,8 C
13.10.2012 03:41 9,0 C 86 % 1010,4 hPa 0,0 l/m 15,1 km/h (3 Bft) W-SW 247 6,8 C 6,7 C
13.10.2012 03:46 8,9 C 86 % 1010,6 hPa 0,0 l/m 11,9 km/h (2 Bft) W-SW 247 6,7 C 7,0 C
13.10.2012 03:51 8,9 C 86 % 1010,7 hPa 0,0 l/m 7,6 km/h (2 Bft) W 270 6,7 C 7,8 C
13.10.2012 03:56 8,8 C 86 % 1010,7 hPa 0,0 l/m 13,0 km/h (3 Bft) W 270 6,6 C 6,7 C
13.10.2012 04:01 8,6 C 86 % 1010,8 hPa 0,0 l/m 29,5 km/h (5 Bft) W-SW 247 6,4 C 4,8 C
13.10.2012 04:06 8,6 C 86 % 1010,8 hPa 0,0 l/m 13,7 km/h (3 Bft) W-SW 247 6,4 C 6,4 C
13.10.2012 04:11 8,5 C 86 % 1011,0 hPa 0,0 l/m 8,3 km/h (2 Bft) W-SW 247 6,3 C 7,2 C
13.10.2012 04:16 8,4 C 86 % 1010,9 hPa 0,0 l/m 5,4 km/h (1 Bft) S-SW 202 6,2 C 7,8 C
13.10.2012 04:21 8,4 C 86 % 1011,0 hPa 0,0 l/m 4,0 km/h (1 Bft) W-SW 247 6,2 C 8,4 C
13.10.2012 04:26 8,3 C 86 % 1011,0 hPa 0,0 l/m 9,4 km/h (2 Bft) SW 225 6,1 C 6,7 C
13.10.2012 04:31 8,2 C 86 % 1011,1 hPa 0,0 l/m 9,4 km/h (2 Bft) SW 225 6,0 C 6,6 C
13.10.2012 04:36 8,1 C 86 % 1011,2 hPa 0,0 l/m 9,4 km/h (2 Bft) SW 225 5,9 C 6,5 C
13.10.2012 04:41 8,1 C 86 % 1011,1 hPa 0,0 l/m 10,4 km/h (2 Bft) W 270 5,9 C 6,3 C
13.10.2012 04:46 7,9 C 86 % 1011,3 hPa 0,0 l/m 12,2 km/h (2 Bft) S-SW 202 5,7 C 5,7 C
13.10.2012 04:51 7,9 C 87 % 1011,2 hPa 0,0 l/m 5,8 km/h (2 Bft) SW 225 5,9 C 7,1 C
13.10.2012 04:56 7,8 C 87 % 1011,1 hPa 0,0 l/m 8,6 km/h (2 Bft) SW 225 5,8 C 6,3 C
13.10.2012 05:01 7,8 C 87 % 1011,1 hPa 0,0 l/m 7,9 km/h (2 Bft) W-SW 247 5,8 C 6,4 C
13.10.2012 05:06 7,6 C 87 % 1011,1 hPa 0,0 l/m 6,1 km/h (2 Bft) S-SW 202 5,6 C 6,7 C
13.10.2012 05:11 7,5 C 87 % 1011,1 hPa 0,0 l/m 8,3 km/h (2 Bft) S-SW 202 5,5 C 6,0 C
13.10.2012 05:16 7,4 C 87 % 1011,2 hPa 0,0 l/m 4,0 km/h (1 Bft) SW 225 5,4 C 7,4 C
13.10.2012 05:21 7,3 C 88 % 1011,3 hPa 0,0 l/m 11,9 km/h (2 Bft) S-SW 202 5,4 C 5,1 C
13.10.2012 05:26 7,3 C 88 % 1011,5 hPa 0,0 l/m 4,3 km/h (1 Bft) SW 225 5,4 C 7,3 C
13.10.2012 05:31 7,2 C 88 % 1011,5 hPa 0,0 l/m 10,8 km/h (2 Bft) W 270 5,3 C 5,1 C
13.10.2012 05:36 7,2 C 88 % 1011,5 hPa 0,0 l/m 5,8 km/h (2 Bft) S 180 5,3 C 6,3 C
13.10.2012 05:41 7,1 C 88 % 1011,5 hPa 0,0 l/m 5,8 km/h (2 Bft) S 180 5,2 C 6,2 C
13.10.2012 05:46 7,1 C 88 % 1011,6 hPa 0,0 l/m 9,0 km/h (2 Bft) W-SW 247 5,2 C 5,4 C
13.10.2012 05:51 6,9 C 88 % 1011,6 hPa 0,0 l/m 12,2 km/h (2 Bft) W-SW 247 5,1 C 4,5 C
13.10.2012 05:56 6,9 C 88 % 1011,5 hPa 0,0 l/m 9,7 km/h (2 Bft) S-SO 157 5,1 C 5,0 C
13.10.2012 06:01 6,9 C 88 % 1011,7 hPa 0,0 l/m 13,0 km/h (3 Bft) W-SW 247 5,1 C 4,4 C
13.10.2012 06:06 6,9 C 88 % 1011,7 hPa 0,0 l/m 8,6 km/h (2 Bft) SW 225 5,1 C 5,2 C
13.10.2012 06:11 6,9 C 88 % 1011,8 hPa 0,0 l/m 6,1 km/h (2 Bft) W-SW 247 5,1 C 5,9 C
13.10.2012 06:16 6,9 C 88 % 1012,0 hPa 0,0 l/m 4,0 km/h (1 Bft) S-SW 202 5,1 C 6,9 C
13.10.2012 06:21 6,8 C 88 % 1011,8 hPa 0,0 l/m 6,1 km/h (2 Bft) SW 225 5,0 C 5,8 C
13.10.2012 06:26 6,8 C 88 % 1011,8 hPa 0,0 l/m 6,8 km/h (2 Bft) W-SW 247 5,0 C 5,6 C
13.10.2012 06:31 6,8 C 89 % 1011,8 hPa 0,0 l/m 6,1 km/h (2 Bft) SW 225 5,1 C 5,8 C
13.10.2012 06:36 6,8 C 89 % 1011,8 hPa 0,0 l/m 7,9 km/h (2 Bft) W-SW 247 5,1 C 5,3 C
13.10.2012 06:41 6,8 C 89 % 1011,8 hPa 0,0 l/m 15,5 km/h (3 Bft) SW 225 5,1 C 3,9 C
13.10.2012 06:46 6,8 C 89 % 1011,8 hPa 0,0 l/m 6,5 km/h (2 Bft) W-SW 247 5,1 C 5,6 C
13.10.2012 06:51 6,8 C 88 % 1011,6 hPa 0,0 l/m 6,5 km/h (2 Bft) W-SW 247 5,0 C 5,6 C
13.10.2012 06:56 6,8 C 88 % 1011,6 hPa 0,0 l/m 4,3 km/h (1 Bft) S-SW 202 5,0 C 6,8 C
13.10.2012 07:01 6,8 C 88 % 1011,7 hPa 0,0 l/m 4,7 km/h (1 Bft) W-SW 247 5,0 C 6,2 C
13.10.2012 07:06 6,7 C 88 % 1011,8 hPa 0,0 l/m 3,6 km/h (1 Bft) S-SW 202 4,9 C 6,7 C
13.10.2012 07:11 6,7 C 88 % 1012,0 hPa 0,0 l/m 5,8 km/h (2 Bft) W-SW 247 4,9 C 5,7 C
13.10.2012 07:16 6,6 C 88 % 1011,9 hPa 0,0 l/m 4,3 km/h (1 Bft) W-SW 247 4,8 C 6,6 C
13.10.2012 07:21 6,6 C 88 % 1012,0 hPa 0,0 l/m 2,5 km/h (1 Bft) W 270 4,8 C 6,6 C
13.10.2012 07:26 6,5 C 88 % 1012,1 hPa 0,0 l/m 5,0 km/h (1 Bft) SW 225 4,7 C 5,8 C
13.10.2012 07:31 6,4 C 88 % 1012,1 hPa 0,0 l/m 6,5 km/h (2 Bft) SW 225 4,6 C 5,2 C
13.10.2012 07:36 6,4 C 88 % 1012,1 hPa 0,0 l/m 15,5 km/h (3 Bft) W 270 4,6 C 3,4 C
13.10.2012 07:41 6,4 C 89 % 1012,3 hPa 0,0 l/m 13,7 km/h (3 Bft) SW 225 4,7 C 3,7 C
13.10.2012 07:46 6,4 C 89 % 1012,2 hPa 0,0 l/m 13,3 km/h (3 Bft) W-SW 247 4,7 C 3,7 C
13.10.2012 07:51 6,4 C 89 % 1012,2 hPa 0,0 l/m 8,6 km/h (2 Bft) W-SW 247 4,7 C 4,6 C
13.10.2012 07:56 6,4 C 89 % 1012,3 hPa 0,0 l/m 7,2 km/h (2 Bft) W 270 4,7 C 5,0 C
13.10.2012 08:01 6,5 C 89 % 1012,4 hPa 0,0 l/m 9,7 km/h (2 Bft) SW 225 4,8 C 4,5 C
13.10.2012 08:06 6,5 C 89 % 1012,2 hPa 0,0 l/m 5,8 km/h (2 Bft) SW 225 4,8 C 5,5 C
13.10.2012 08:11 6,5 C 89 % 1012,4 hPa 0,0 l/m 8,6 km/h (2 Bft) W-SW 247 4,8 C 4,8 C
13.10.2012 08:16 6,6 C 89 % 1012,3 hPa 0,0 l/m 5,4 km/h (1 Bft) W-SW 247 4,9 C 5,8 C
13.10.2012 08:21 6,7 C 88 % 1012,4 hPa 0,0 l/m 8,6 km/h (2 Bft) S-SW 202 4,9 C 5,0 C
13.10.2012 08:26 6,8 C 89 % 1012,4 hPa 0,0 l/m 15,8 km/h (3 Bft) SW 225 5,1 C 3,9 C
13.10.2012 08:31 6,9 C 88 % 1012,4 hPa 0,0 l/m 5,0 km/h (1 Bft) S 180 5,1 C 6,2 C
13.10.2012 08:36 6,9 C 88 % 1012,5 hPa 0,0 l/m 13,0 km/h (3 Bft) SW 225 5,1 C 4,4 C
13.10.2012 08:41 7,1 C 88 % 1012,5 hPa 0,0 l/m 3,6 km/h (1 Bft) W 270 5,2 C 7,1 C
13.10.2012 08:46 7,2 C 88 % 1012,4 hPa 0,0 l/m 19,8 km/h (3 Bft) SW 225 5,3 C 3,9 C
13.10.2012 08:51 7,2 C 88 % 1012,5 hPa 0,0 l/m 9,7 km/h (2 Bft) SW 225 5,3 C 5,3 C
13.10.2012 08:56 7,3 C 87 % 1012,5 hPa 0,0 l/m 14,8 km/h (3 Bft) W-SW 247 5,3 C 4,6 C
13.10.2012 09:01 7,4 C 87 % 1012,3 hPa 0,0 l/m 7,9 km/h (2 Bft) W 270 5,4 C 6,0 C
13.10.2012 09:06 7,5 C 87 % 1012,4 hPa 0,0 l/m 10,4 km/h (2 Bft) S-SW 202 5,5 C 5,6 C
13.10.2012 09:11 7,6 C 86 % 1012,4 hPa 0,0 l/m 7,2 km/h (2 Bft) S-SW 202 5,4 C 6,4 C
13.10.2012 09:16 7,8 C 86 % 1012,5 hPa 0,0 l/m 7,6 km/h (2 Bft) S 180 5,6 C 6,5 C
13.10.2012 09:21 7,8 C 86 % 1012,5 hPa 0,0 l/m 7,6 km/h (2 Bft) W-SW 247 5,6 C 6,5 C
13.10.2012 09:26 7,9 C 86 % 1012,5 hPa 0,0 l/m 14,8 km/h (3 Bft) SW 225 5,7 C 5,4 C
13.10.2012 09:31 8,1 C 86 % 1012,6 hPa 0,0 l/m 6,5 km/h (2 Bft) SW 225 5,9 C 7,1 C
13.10.2012 09:36 8,1 C 85 % 1012,8 hPa 0,0 l/m 8,3 km/h (2 Bft) S-SW 202 5,7 C 6,7 C
13.10.2012 09:41 8,3 C 85 % 1012,7 hPa 0,0 l/m 13,0 km/h (3 Bft) SW 225 5,9 C 6,1 C
13.10.2012 09:46 8,5 C 85 % 1012,7 hPa 0,0 l/m 6,1 km/h (2 Bft) W 270 6,1 C 7,7 C
13.10.2012 09:51 8,6 C 84 % 1012,7 hPa 0,0 l/m 6,8 km/h (2 Bft) W-SW 247 6,1 C 7,6 C
13.10.2012 09:56 8,8 C 84 % 1012,8 hPa 0,0 l/m 15,1 km/h (3 Bft) W-SW 247 6,2 C 6,4 C
13.10.2012 10:01 8,9 C 84 % 1012,8 hPa 0,0 l/m 11,2 km/h (2 Bft) SW 225 6,3 C 7,1 C
13.10.2012 10:06 8,9 C 83 % 1012,7 hPa 0,0 l/m 8,3 km/h (2 Bft) W-SW 247 6,2 C 7,7 C
13.10.2012 10:11 9,1 C 83 % 1012,8 hPa 0,0 l/m 15,1 km/h (3 Bft) W-SW 247 6,4 C 6,8 C
13.10.2012 10:16 9,3 C 82 % 1012,9 hPa 0,0 l/m 16,9 km/h (3 Bft) W 270 6,4 C 6,8 C
13.10.2012 10:21 9,4 C 82 % 1012,7 hPa 0,0 l/m 9,7 km/h (2 Bft) W 270 6,5 C 8,0 C
13.10.2012 10:26 9,4 C 81 % 1012,7 hPa 0,0 l/m 2,9 km/h (1 Bft) S 180 6,3 C 9,4 C
13.10.2012 10:31 9,6 C 81 % 1012,8 hPa 0,0 l/m 6,5 km/h (2 Bft) W 270 6,5 C 8,9 C
13.10.2012 10:36 9,7 C 81 % 1012,7 hPa 0,0 l/m 14,8 km/h (3 Bft) S-SW 202 6,6 C 7,6 C
13.10.2012 10:41 9,8 C 81 % 1012,8 hPa 0,0 l/m 11,2 km/h (2 Bft) W 270 6,7 C 8,2 C
13.10.2012 10:46 9,9 C 80 % 1012,6 hPa 0,0 l/m 9,4 km/h (2 Bft) W-SW 247 6,6 C 8,6 C
13.10.2012 10:51 9,9 C 80 % 1012,7 hPa 0,0 l/m 11,9 km/h (2 Bft) SW 225 6,6 C 8,2 C
13.10.2012 10:56 10,1 C 80 % 1012,7 hPa 0,0 l/m 4,7 km/h (1 Bft) S-SW 202 6,8 C 10,1 C
13.10.2012 11:01 10,2 C 79 % 1012,7 hPa 0,0 l/m 14,4 km/h (3 Bft) SW 225 6,7 C 10,2 C
13.10.2012 11:06 10,3 C 79 % 1012,7 hPa 0,0 l/m 8,3 km/h (2 Bft) S-SW 202 6,8 C 10,3 C
13.10.2012 11:11 10,4 C 79 % 1012,7 hPa 0,0 l/m 16,9 km/h (3 Bft) W 270 6,9 C 10,4 C
13.10.2012 11:16 10,5 C 79 % 1012,6 hPa 0,0 l/m 6,1 km/h (2 Bft) W-SW 247 7,0 C 10,5 C
13.10.2012 11:21 10,6 C 78 % 1012,6 hPa 0,0 l/m 12,6 km/h (3 Bft) SW 225 6,9 C 10,6 C
13.10.2012 11:26 10,8 C 77 % 1012,6 hPa 0,0 l/m 26,3 km/h (4 Bft) W 270 6,9 C 10,8 C
13.10.2012 11:31 10,9 C 77 % 1012,7 hPa 0,0 l/m 6,8 km/h (2 Bft) SW 225 7,0 C 10,9 C
13.10.2012 11:36 10,9 C 77 % 1012,6 hPa 0,0 l/m 9,7 km/h (2 Bft) W 270 7,0 C 10,9 C
13.10.2012 11:41 11,1 C 76 % 1012,4 hPa 0,0 l/m 10,1 km/h (2 Bft) SW 225 7,0 C 11,1 C
13.10.2012 11:46 11,1 C 76 % 1012,4 hPa 0,0 l/m 16,9 km/h (3 Bft) W-SW 247 7,0 C 11,1 C
13.10.2012 11:51 11,2 C 76 % 1012,3 hPa 0,0 l/m 11,9 km/h (2 Bft) S-SW 202 7,1 C 11,2 C
13.10.2012 11:56 11,3 C 75 % 1012,4 hPa 0,0 l/m 10,8 km/h (2 Bft) S-SW 202 7,0 C 11,3 C
13.10.2012 12:01 11,4 C 75 % 1012,4 hPa 0,0 l/m 6,1 km/h (2 Bft) W-SW 247 7,1 C 11,4 C
13.10.2012 12:06 11,6 C 76 % 1012,4 hPa 0,0 l/m 6,5 km/h (2 Bft) S-SO 157 7,5 C 11,6 C
13.10.2012 12:11 11,6 C 75 % 1012,3 hPa 0,0 l/m 15,5 km/h (3 Bft) S-SW 202 7,3 C 11,6 C
13.10.2012 12:16 11,8 C 74 % 1012,3 hPa 0,0 l/m 14,0 km/h (3 Bft) W-SW 247 7,3 C 11,8 C
13.10.2012 12:21 11,9 C 74 % 1012,4 hPa 0,0 l/m 9,0 km/h (2 Bft) SW 225 7,4 C 11,9 C
13.10.2012 12:26 11,9 C 74 % 1012,2 hPa 0,0 l/m 6,5 km/h (2 Bft) SW 225 7,4 C 11,9 C
13.10.2012 12:31 12,1 C 73 % 1012,1 hPa 0,0 l/m 11,5 km/h (2 Bft) W-SW 247 7,4 C 12,1 C
13.10.2012 12:36 12,2 C 73 % 1012,1 hPa 0,0 l/m 11,9 km/h (2 Bft) S-SW 202 7,5 C 12,2 C
13.10.2012 12:41 12,3 C 73 % 1012,0 hPa 0,0 l/m 7,2 km/h (2 Bft) SW 225 7,6 C 12,3 C
13.10.2012 12:46 12,4 C 72 % 1012,0 hPa 0,0 l/m 5,4 km/h (1 Bft) SW 225 7,5 C 12,4 C
13.10.2012 12:51 12,4 C 72 % 1011,8 hPa 0,0 l/m 9,7 km/h (2 Bft) S-SO 157 7,5 C 12,4 C
13.10.2012 12:56 12,5 C 72 % 1011,9 hPa 0,0 l/m 6,1 km/h (2 Bft) S 180 7,6 C 12,5 C
13.10.2012 13:01 12,6 C 72 % 1011,8 hPa 0,0 l/m 6,5 km/h (2 Bft) S-SO 157 7,7 C 12,6 C
13.10.2012 13:06 12,7 C 72 % 1011,9 hPa 0,0 l/m 11,9 km/h (2 Bft) S-SW 202 7,8 C 12,7 C
13.10.2012 13:11 12,8 C 71 % 1011,8 hPa 0,0 l/m 8,6 km/h (2 Bft) S-SW 202 7,7 C 12,8 C
13.10.2012 13:16 12,9 C 71 % 1011,8 hPa 0,0 l/m 14,4 km/h (3 Bft) S-SW 202 7,8 C 12,9 C
13.10.2012 13:21 13,0 C 70 % 1011,7 hPa 0,0 l/m 5,4 km/h (1 Bft) S-SW 202 7,7 C 13,0 C
13.10.2012 13:26 13,1 C 70 % 1011,7 hPa 0,0 l/m 13,3 km/h (3 Bft) S-SW 202 7,8 C 13,1 C
13.10.2012 13:31 13,1 C 70 % 1011,7 hPa 0,0 l/m 4,0 km/h (1 Bft) W 270 7,8 C 13,1 C
13.10.2012 13:36 13,2 C 70 % 1011,7 hPa 0,0 l/m 8,3 km/h (2 Bft) SW 225 7,9 C 13,2 C
13.10.2012 13:41 13,3 C 70 % 1011,6 hPa 0,0 l/m 7,2 km/h (2 Bft) SW 225 7,9 C 13,3 C
13.10.2012 13:46 13,4 C 69 % 1011,6 hPa 0,0 l/m 11,5 km/h (2 Bft) SW 225 7,8 C 13,4 C
13.10.2012 13:51 13,6 C 69 % 1011,6 hPa 0,0 l/m 5,0 km/h (1 Bft) W-SW 247 8,0 C 13,6 C
13.10.2012 13:56 13,8 C 68 % 1011,6 hPa 0,0 l/m 6,1 km/h (2 Bft) W-SW 247 8,0 C 13,8 C
13.10.2012 14:01 13,9 C 68 % 1011,4 hPa 0,0 l/m 16,9 km/h (3 Bft) S-SW 202 8,1 C 13,9 C
13.10.2012 14:06 13,9 C 67 % 1011,4 hPa 0,0 l/m 6,8 km/h (2 Bft) W-SW 247 7,9 C 13,9 C
13.10.2012 14:11 14,2 C 67 % 1011,3 hPa 0,0 l/m 2,5 km/h (1 Bft) SW 225 8,2 C 14,2 C
13.10.2012 14:16 14,2 C 65 % 1011,1 hPa 0,0 l/m 10,8 km/h (2 Bft) S 180 7,7 C 14,2 C
13.10.2012 14:21 14,2 C 65 % 1011,5 hPa 0,0 l/m 11,9 km/h (2 Bft) S-SW 202 7,7 C 14,2 C
13.10.2012 14:26 14,2 C 64 % 1011,4 hPa 0,0 l/m 6,5 km/h (2 Bft) S-SW 202 7,5 C 14,2 C
13.10.2012 14:31 14,3 C 63 % 1011,4 hPa 0,0 l/m 19,4 km/h (3 Bft) W 270 7,4 C 14,3 C
13.10.2012 14:36 14,3 C 63 % 1011,6 hPa 0,0 l/m 14,8 km/h (3 Bft) W-SW 247 7,4 C 14,3 C
13.10.2012 14:41 14,3 C 63 % 1011,1 hPa 0,0 l/m 11,9 km/h (2 Bft) S-SW 202 7,4 C 14,3 C
13.10.2012 14:46 14,4 C 63 % 1011,1 hPa 0,0 l/m 6,1 km/h (2 Bft) S 180 7,4 C 14,4 C
13.10.2012 14:51 14,4 C 64 % 1011,0 hPa 0,0 l/m 9,0 km/h (2 Bft) W-SW 247 7,7 C 14,4 C
13.10.2012 14:56 14,4 C 63 % 1010,9 hPa 0,0 l/m 8,6 km/h (2 Bft) W-SW 247 7,4 C 14,4 C
13.10.2012 15:01 14,2 C 64 % 1010,9 hPa 0,0 l/m 7,6 km/h (2 Bft) S-SW 202 7,5 C 14,2 C
13.10.2012 15:06 14,3 C 64 % 1010,9 hPa 0,0 l/m 6,1 km/h (2 Bft) S 180 7,6 C 14,3 C
13.10.2012 15:11 14,4 C 64 % 1010,9 hPa 0,0 l/m 11,5 km/h (2 Bft) S 180 7,7 C 14,4 C
13.10.2012 15:16 14,6 C 64 % 1010,9 hPa 0,0 l/m 9,0 km/h (2 Bft) S 180 7,9 C 14,6 C
13.10.2012 15:21 14,6 C 63 % 1010,9 hPa 0,0 l/m 6,1 km/h (2 Bft) W-SW 247 7,6 C 14,6 C
13.10.2012 15:26 14,4 C 64 % 1010,9 hPa 0,0 l/m 4,3 km/h (1 Bft) S-SO 157 7,7 C 14,4 C
13.10.2012 15:31 14,6 C 64 % 1010,8 hPa 0,0 l/m 11,2 km/h (2 Bft) SW 225 7,9 C 14,6 C
13.10.2012 15:36 14,9 C 64 % 1010,6 hPa 0,0 l/m 11,9 km/h (2 Bft) W-SW 247 8,2 C 14,9 C
13.10.2012 15:41 15,0 C 63 % 1010,6 hPa 0,0 l/m 9,7 km/h (2 Bft) S-SW 202 8,0 C 15,0 C
13.10.2012 15:46 15,1 C 63 % 1010,5 hPa 0,0 l/m 4,0 km/h (1 Bft) W-SW 247 8,1 C 15,1 C
13.10.2012 15:51 15,2 C 64 % 1010,5 hPa 0,0 l/m 10,1 km/h (2 Bft) S 180 8,4 C 15,2 C
13.10.2012 15:56 15,1 C 64 % 1010,5 hPa 0,0 l/m 4,0 km/h (1 Bft) S-SW 202 8,3 C 15,1 C
13.10.2012 16:01 14,9 C 64 % 1010,5 hPa 0,0 l/m 7,9 km/h (2 Bft) SW 225 8,2 C 14,9 C
13.10.2012 16:06 14,8 C 64 % 1010,4 hPa 0,0 l/m 9,4 km/h (2 Bft) W-SW 247 8,1 C 14,8 C
13.10.2012 16:11 14,8 C 64 % 1010,3 hPa 0,0 l/m 10,1 km/h (2 Bft) W 270 8,1 C 14,8 C
13.10.2012 16:16 14,7 C 64 % 1010,1 hPa 0,0 l/m 4,7 km/h (1 Bft) S-SW 202 8,0 C 14,7 C
13.10.2012 16:21 14,6 C 65 % 1010,0 hPa 0,0 l/m 6,1 km/h (2 Bft) S-SW 202 8,1 C 14,6 C
13.10.2012 16:26 14,5 C 65 % 1010,0 hPa 0,0 l/m 6,5 km/h (2 Bft) S 180 8,0 C 14,5 C
13.10.2012 16:31 14,4 C 66 % 1009,9 hPa 0,0 l/m 11,9 km/h (2 Bft) S 180 8,1 C 14,4 C
13.10.2012 16:36 14,1 C 66 % 1010,0 hPa 0,0 l/m 6,8 km/h (2 Bft) S-SO 157 7,8 C 14,1 C
13.10.2012 16:41 14,0 C 67 % 1009,8 hPa 0,0 l/m 13,3 km/h (3 Bft) S-SO 157 8,0 C 14,0 C
13.10.2012 16:46 13,9 C 67 % 1009,8 hPa 0,0 l/m 14,0 km/h (3 Bft) S-SW 202 7,9 C 13,9 C
13.10.2012 16:51 13,9 C 68 % 1009,9 hPa 0,0 l/m 7,9 km/h (2 Bft) S-SO 157 8,1 C 13,9 C
13.10.2012 16:56 13,8 C 68 % 1009,8 hPa 0,0 l/m 5,8 km/h (2 Bft) SO 135 8,0 C 13,8 C
13.10.2012 17:01 13,6 C 69 % 1009,8 hPa 0,0 l/m 13,0 km/h (3 Bft) S-SW 202 8,0 C 13,6 C
13.10.2012 17:06 13,5 C 69 % 1009,6 hPa 0,0 l/m 14,8 km/h (3 Bft) S-SW 202 7,9 C 13,5 C
13.10.2012 17:11 13,4 C 70 % 1009,6 hPa 0,0 l/m 9,7 km/h (2 Bft) SW 225 8,0 C 13,4 C
13.10.2012 17:16 13,2 C 71 % 1009,6 hPa 0,0 l/m 6,8 km/h (2 Bft) SW 225 8,1 C 13,2 C
13.10.2012 17:21 13,0 C 71 % 1009,5 hPa 0,0 l/m 1,8 km/h (1 Bft) O-SO 112 7,9 C 13,0 C
13.10.2012 17:26 12,9 C 72 % 1009,6 hPa 0,0 l/m 4,0 km/h (1 Bft) S-SO 157 8,0 C 12,9 C
13.10.2012 17:31 12,8 C 72 % 1009,5 hPa 0,0 l/m 10,4 km/h (2 Bft) S 180 7,9 C 12,8 C
13.10.2012 17:36 12,6 C 73 % 1009,5 hPa 0,0 l/m 1,4 km/h (1 Bft) SO 135 7,9 C 12,6 C
13.10.2012 17:41 12,5 C 73 % 1009,4 hPa 0,0 l/m 4,7 km/h (1 Bft) S-SW 202 7,8 C 12,5 C
13.10.2012 17:46 12,4 C 74 % 1009,5 hPa 0,0 l/m 3,6 km/h (1 Bft) S-SO 157 7,9 C 12,4 C
13.10.2012 17:51 12,3 C 74 % 1009,5 hPa 0,0 l/m 2,9 km/h (1 Bft) S 180 7,8 C 12,3 C
13.10.2012 17:56 12,2 C 74 % 1009,1 hPa 0,0 l/m 4,7 km/h (1 Bft) W-SW 247 7,7 C 12,2 C
13.10.2012 18:01 12,1 C 75 % 1009,1 hPa 0,0 l/m 4,3 km/h (1 Bft) S 180 7,8 C 12,1 C
13.10.2012 18:06 11,9 C 76 % 1009,1 hPa 0,0 l/m 6,5 km/h (2 Bft) S-SO 157 7,8 C 11,9 C
13.10.2012 18:11 11,8 C 76 % 1009,1 hPa 0,0 l/m 9,0 km/h (2 Bft) S-SW 202 7,7 C 11,8 C
13.10.2012 18:16 11,6 C 76 % 1009,1 hPa 0,0 l/m 2,5 km/h (1 Bft) SO 135 7,5 C 11,6 C
13.10.2012 18:21 11,5 C 77 % 1009,1 hPa 0,0 l/m 9,4 km/h (2 Bft) S-SO 157 7,6 C 11,5 C
13.10.2012 18:26 11,4 C 77 % 1009,1 hPa 0,0 l/m 1,4 km/h (1 Bft) S-SO 157 7,5 C 11,4 C
13.10.2012 18:31 11,3 C 77 % 1009,0 hPa 0,0 l/m 4,7 km/h (1 Bft) SO 135 7,4 C 11,3 C
13.10.2012 18:36 11,2 C 77 % 1009,1 hPa 0,0 l/m 0,0 km/h (0 Bft) S-SO 157 7,3 C 11,2 C
13.10.2012 18:41 11,1 C 78 % 1009,1 hPa 0,0 l/m 0,0 km/h (0 Bft) S 180 7,4 C 11,1 C
13.10.2012 18:46 11,0 C 78 % 1009,1 hPa 0,0 l/m 3,6 km/h (1 Bft) S-SO 157 7,3 C 11,0 C
13.10.2012 18:51 10,9 C 78 % 1009,0 hPa 0,0 l/m 1,8 km/h (1 Bft) S-SO 157 7,2 C 10,9 C
13.10.2012 18:56 10,9 C 79 % 1009,1 hPa 0,0 l/m 3,6 km/h (1 Bft) S-SO 157 7,4 C 10,9 C
13.10.2012 19:01 10,8 C 79 % 1009,0 hPa 0,0 l/m 2,5 km/h (1 Bft) S-SO 157 7,3 C 10,8 C
13.10.2012 19:06 10,6 C 79 % 1008,8 hPa 0,0 l/m 6,1 km/h (2 Bft) S 180 7,1 C 10,6 C
13.10.2012 19:11 10,6 C 79 % 1008,8 hPa 0,0 l/m 0,0 km/h (0 Bft) S-SO 157 7,1 C 10,6 C
13.10.2012 19:16 10,5 C 79 % 1008,8 hPa 0,0 l/m 4,0 km/h (1 Bft) SO 135 7,0 C 10,5 C
13.10.2012 19:21 10,4 C 79 % 1008,8 hPa 0,0 l/m 5,4 km/h (1 Bft) S 180 6,9 C 10,4 C
13.10.2012 19:26 10,4 C 79 % 1008,8 hPa 0,0 l/m 0,0 km/h (0 Bft) SO 135 6,9 C 10,4 C
13.10.2012 19:31 10,3 C 80 % 1008,7 hPa 0,0 l/m 0,0 km/h (0 Bft) S-SO 157 7,0 C 10,3 C
13.10.2012 19:36 10,2 C 80 % 1008,8 hPa 0,0 l/m 2,2 km/h (1 Bft) S-SO 157 6,9 C 10,2 C
13.10.2012 19:41 10,1 C 80 % 1008,7 hPa 0,0 l/m 5,4 km/h (1 Bft) S-SO 157 6,8 C 10,1 C
13.10.2012 19:46 10,0 C 80 % 1008,6 hPa 0,0 l/m 6,1 km/h (2 Bft) S 180 6,7 C 9,4 C
13.10.2012 19:51 9,9 C 80 % 1008,6 hPa 0,0 l/m 2,2 km/h (1 Bft) S 180 6,6 C 9,9 C
13.10.2012 19:56 9,8 C 81 % 1008,6 hPa 0,0 l/m 2,2 km/h (1 Bft) S-SO 157 6,7 C 9,8 C
13.10.2012 20:01 9,8 C 81 % 1008,5 hPa 0,0 l/m 4,0 km/h (1 Bft) S-SO 157 6,7 C 9,8 C
13.10.2012 20:06 9,7 C 81 % 1008,4 hPa 0,0 l/m 4,0 km/h (1 Bft) SO 135 6,6 C 9,7 C
13.10.2012 20:11 9,6 C 81 % 1008,4 hPa 0,0 l/m 10,1 km/h (2 Bft) S 180 6,5 C 8,1 C
13.10.2012 20:16 9,6 C 81 % 1008,4 hPa 0,0 l/m 6,5 km/h (2 Bft) S-SO 157 6,5 C 8,9 C
13.10.2012 20:21 9,5 C 81 % 1008,4 hPa 0,0 l/m 5,0 km/h (1 Bft) S-SO 157 6,4 C 9,2 C
13.10.2012 20:26 9,5 C 81 % 1008,4 hPa 0,0 l/m 2,9 km/h (1 Bft) S-SO 157 6,4 C 9,5 C
13.10.2012 20:31 9,4 C 81 % 1008,4 hPa 0,0 l/m 2,9 km/h (1 Bft) S-SO 157 6,3 C 9,4 C
13.10.2012 20:36 9,4 C 81 % 1008,3 hPa 0,0 l/m 6,1 km/h (2 Bft) S-SW 202 6,3 C 8,8 C
13.10.2012 20:41 9,4 C 81 % 1008,1 hPa 0,0 l/m 2,5 km/h (1 Bft) SO 135 6,3 C 9,4 C
13.10.2012 20:46 9,3 C 81 % 1008,2 hPa 0,0 l/m 4,0 km/h (1 Bft) S-SO 157 6,2 C 9,3 C
13.10.2012 20:51 9,3 C 81 % 1008,1 hPa 0,0 l/m 0,0 km/h (0 Bft) SO 135 6,2 C 9,3 C
13.10.2012 20:56 9,2 C 82 % 1008,0 hPa 0,0 l/m 3,6 km/h (1 Bft) SO 135 6,3 C 9,2 C
13.10.2012 21:01 9,1 C 82 % 1008,0 hPa 0,0 l/m 3,6 km/h (1 Bft) S-SO 157 6,2 C 9,1 C
13.10.2012 21:06 9,1 C 82 % 1008,1 hPa 0,0 l/m 1,8 km/h (1 Bft) SO 135 6,2 C 9,1 C
13.10.2012 21:11 9,1 C 82 % 1008,0 hPa 0,0 l/m 2,2 km/h (1 Bft) SO 135 6,2 C 9,1 C
13.10.2012 21:16 8,9 C 82 % 1008,0 hPa 0,0 l/m 2,5 km/h (1 Bft) SO 135 6,0 C 8,9 C
13.10.2012 21:21 8,9 C 82 % 1007,9 hPa 0,0 l/m 0,0 km/h (0 Bft) O-SO 112 6,0 C 8,9 C
13.10.2012 21:26 8,8 C 82 % 1007,9 hPa 0,0 l/m 0,0 km/h (0 Bft) SO 135 5,9 C 8,8 C
13.10.2012 21:31 8,6 C 82 % 1007,9 hPa 0,0 l/m 0,0 km/h (0 Bft) S-SO 157 5,7 C 8,6 C
13.10.2012 21:36 8,5 C 83 % 1007,7 hPa 0,0 l/m 4,0 km/h (1 Bft) SO 135 5,8 C 8,5 C
13.10.2012 21:41 8,5 C 83 % 1007,8 hPa 0,0 l/m 6,1 km/h (2 Bft) SO 135 5,8 C 7,7 C
13.10.2012 21:46 8,5 C 83 % 1007,8 hPa 0,0 l/m 4,3 km/h (1 Bft) SO 135 5,8 C 8,5 C
13.10.2012 21:51 8,4 C 83 % 1007,8 hPa 0,0 l/m 3,6 km/h (1 Bft) SO 135 5,7 C 8,4 C
13.10.2012 21:56 8,4 C 83 % 1007,6 hPa 0,0 l/m 4,3 km/h (1 Bft) O-SO 112 5,7 C 8,4 C
13.10.2012 22:01 8,3 C 83 % 1007,6 hPa 0,0 l/m 5,4 km/h (1 Bft) O-SO 112 5,6 C 7,7 C
13.10.2012 22:06 8,1 C 83 % 1007,4 hPa 0,0 l/m 2,2 km/h (1 Bft) O-SO 112 5,4 C 8,1 C
13.10.2012 22:11 8,0 C 83 % 1007,3 hPa 0,0 l/m 3,2 km/h (1 Bft) O-SO 112 5,3 C 8,0 C
13.10.2012 22:16 7,9 C 84 % 1007,4 hPa 0,0 l/m 2,9 km/h (1 Bft) SO 135 5,4 C 7,9 C
13.10.2012 22:21 7,8 C 84 % 1007,3 hPa 0,0 l/m 4,7 km/h (1 Bft) O-SO 112 5,3 C 7,4 C
13.10.2012 22:26 7,6 C 84 % 1007,2 hPa 0,0 l/m 2,9 km/h (1 Bft) O-SO 112 5,1 C 7,6 C
13.10.2012 22:31 7,5 C 85 % 1007,3 hPa 0,0 l/m 2,9 km/h (1 Bft) SO 135 5,1 C 7,5 C
13.10.2012 22:36 7,5 C 85 % 1007,3 hPa 0,0 l/m 1,8 km/h (1 Bft) O-SO 112 5,1 C 7,5 C
13.10.2012 22:41 7,4 C 85 % 1007,3 hPa 0,0 l/m 3,6 km/h (1 Bft) SO 135 5,0 C 7,4 C
13.10.2012 22:46 7,4 C 85 % 1007,0 hPa 0,0 l/m 4,0 km/h (1 Bft) O-SO 112 5,0 C 7,4 C
13.10.2012 22:51 7,5 C 85 % 1007,0 hPa 0,0 l/m 2,2 km/h (1 Bft) SO 135 5,1 C 7,5 C
13.10.2012 22:56 7,5 C 85 % 1007,0 hPa 0,0 l/m 2,5 km/h (1 Bft) SO 135 5,1 C 7,5 C
13.10.2012 23:01 7,6 C 85 % 1007,0 hPa 0,0 l/m 2,2 km/h (1 Bft) S-SO 157 5,2 C 7,6 C
13.10.2012 23:06 7,7 C 86 % 1007,0 hPa 0,0 l/m 2,2 km/h (1 Bft) O-SO 112 5,5 C 7,7 C
13.10.2012 23:11 7,8 C 86 % 1007,0 hPa 0,0 l/m 3,6 km/h (1 Bft) SO 135 5,6 C 7,8 C
13.10.2012 23:16 7,9 C 86 % 1007,0 hPa 0,0 l/m 8,6 km/h (2 Bft) O-SO 112 5,7 C 6,4 C
13.10.2012 23:21 8,2 C 85 % 1006,9 hPa 0,0 l/m 5,8 km/h (2 Bft) SO 135 5,8 C 7,5 C
13.10.2012 23:26 8,3 C 85 % 1006,8 hPa 0,0 l/m 5,4 km/h (1 Bft) S 180 5,9 C 7,7 C
13.10.2012 23:31 8,4 C 84 % 1006,7 hPa 0,0 l/m 5,8 km/h (2 Bft) SO 135 5,9 C 7,7 C
13.10.2012 23:36 8,4 C 84 % 1006,9 hPa 0,0 l/m 4,0 km/h (1 Bft) S-SO 157 5,9 C 8,4 C
13.10.2012 23:41 8,4 C 83 % 1006,5 hPa 0,0 l/m 5,4 km/h (1 Bft) SO 135 5,7 C 7,8 C
13.10.2012 23:46 8,4 C 83 % 1006,5 hPa 0,0 l/m 4,3 km/h (1 Bft) S-SO 157 5,7 C 8,4 C
13.10.2012 23:51 8,5 C 83 % 1006,6 hPa 0,0 l/m 3,2 km/h (1 Bft) SO 135 5,8 C 8,5 C
13.10.2012 23:56 8,4 C 83 % 1006,4 hPa 0,0 l/m 8,6 km/h (2 Bft) S-SO 157 5,7 C 7,0 C
_ Min-Zeit 07:31 14:31 23:56 - 18:36 - - 07:31 07:36
Minimum _ 6,4 C 63 % 1006,4 hPa - 0,0 km/h (0 Bft) - - 4,6 C 3,4 C
_ Max-Zeit 15:51 00:01 10:16 00:01 04:01 - - 00:01 15:51
Maximum _ 15,2 C 92 % 1012,9 hPa 0,0 l/m 29,5 km/h
W-SW (5 Bft)
- - 8,9 C 15,2 C
Durchschnitt _ 10,0 C 80 % 1010,4 hPa #0,0 l/m 8,5 km/h (2 Bft) W-SW - 6,7 C 9,3 C
(c) by David Heller